VNKT METAR

Available data for VNKT from the past hour
KATHMANDU INTL A
Metar
VNKT 240220Z VRB02KT 5000 BR FEW015 14/11 Q1021 NOSIG

02:20 UTC

Wind: ° 2kt

Visibility: 5000 m

Sky: FEW 1500 ft

Temp: 14 deg C / 57.2 deg F

Dewpoint: 11 deg C / 51.8 deg F

Pressure: 1021 hPa

TAF
TAF VNKT 232300Z 2400/2424 00000KT 4000 BR FEW010 SCT025 PROB40 2401/2403 2500 BR BECMG 2404/2405 13003KT 6000 FEW015 BECMG 2407/2409 21008KT 8000 FEW020 BECMG 2414/2415 14003KT 6000 FEW015

WARNING: the data listed  above is for informational purposes only and should be confirmed from official sources. Data presented here on this page are fetched from Aviation weather data from NOAA’s Aviation Digital Data Service.

How to see the Details of METAR Reading.

Click on the Triangle beside of the Word METAR.(Refer to Fig.1)

VNKTmetar